sensor_id;sensor_type;location;lat;lon;timestamp;temperature;humidity
27506;DHT22;14939;43.596;1.320;2022-08-07T00:01:51;25.00;31.10
27506;DHT22;14939;43.596;1.320;2022-08-07T00:04:16;25.00;31.30
27506;DHT22;14939;43.596;1.320;2022-08-07T00:06:42;24.90;31.50
27506;DHT22;14939;43.596;1.320;2022-08-07T00:09:08;24.90;31.90
27506;DHT22;14939;43.596;1.320;2022-08-07T00:11:34;24.80;32.10
27506;DHT22;14939;43.596;1.320;2022-08-07T00:14:00;24.70;32.30
27506;DHT22;14939;43.596;1.320;2022-08-07T00:16:26;24.60;32.50
27506;DHT22;14939;43.596;1.320;2022-08-07T00:18:51;24.60;32.60
27506;DHT22;14939;43.596;1.320;2022-08-07T00:21:17;24.50;32.70
27506;DHT22;14939;43.596;1.320;2022-08-07T00:23:43;24.50;32.50
27506;DHT22;14939;43.596;1.320;2022-08-07T00:26:10;24.50;32.60
27506;DHT22;14939;43.596;1.320;2022-08-07T00:28:36;24.50;32.70
27506;DHT22;14939;43.596;1.320;2022-08-07T00:31:09;24.40;32.90
27506;DHT22;14939;43.596;1.320;2022-08-07T00:33:36;24.40;33.10
27506;DHT22;14939;43.596;1.320;2022-08-07T00:36:03;24.30;33.40
27506;DHT22;14939;43.596;1.320;2022-08-07T00:38:30;24.30;33.50
27506;DHT22;14939;43.596;1.320;2022-08-07T00:40:57;24.20;33.70
27506;DHT22;14939;43.596;1.320;2022-08-07T00:43:22;24.20;33.80
27506;DHT22;14939;43.596;1.320;2022-08-07T00:45:48;24.20;34.00
27506;DHT22;14939;43.596;1.320;2022-08-07T00:48:14;24.10;34.10
27506;DHT22;14939;43.596;1.320;2022-08-07T00:50:40;24.10;34.10
27506;DHT22;14939;43.596;1.320;2022-08-07T00:53:06;24.10;34.30
27506;DHT22;14939;43.596;1.320;2022-08-07T00:55:32;24.00;34.40
27506;DHT22;14939;43.596;1.320;2022-08-07T00:57:58;24.00;34.50
27506;DHT22;14939;43.596;1.320;2022-08-07T01:00:24;24.00;34.80
27506;DHT22;14939;43.596;1.320;2022-08-07T01:02:50;23.90;35.10
27506;DHT22;14939;43.596;1.320;2022-08-07T01:05:16;23.80;35.00
27506;DHT22;14939;43.596;1.320;2022-08-07T01:07:42;23.80;35.90
27506;DHT22;14939;43.596;1.320;2022-08-07T01:10:09;23.80;35.20
27506;DHT22;14939;43.596;1.320;2022-08-07T01:12:36;23.80;35.60
27506;DHT22;14939;43.596;1.320;2022-08-07T01:15:03;23.70;35.60
27506;DHT22;14939;43.596;1.320;2022-08-07T01:17:30;23.70;36.50
27506;DHT22;14939;43.596;1.320;2022-08-07T01:20:05;23.60;37.10
27506;DHT22;14939;43.596;1.320;2022-08-07T01:22:31;23.40;37.40
27506;DHT22;14939;43.596;1.320;2022-08-07T01:24:57;23.40;38.10
27506;DHT22;14939;43.596;1.320;2022-08-07T01:27:24;23.40;37.30
27506;DHT22;14939;43.596;1.320;2022-08-07T01:29:50;23.40;37.40
27506;DHT22;14939;43.596;1.320;2022-08-07T01:32:16;23.40;37.80
27506;DHT22;14939;43.596;1.320;2022-08-07T01:34:42;23.40;37.40
27506;DHT22;14939;43.596;1.320;2022-08-07T01:37:10;23.40;36.80
27506;DHT22;14939;43.596;1.320;2022-08-07T01:39:38;23.40;36.80
27506;DHT22;14939;43.596;1.320;2022-08-07T01:42:03;23.40;36.90
27506;DHT22;14939;43.596;1.320;2022-08-07T01:44:29;23.30;37.30
27506;DHT22;14939;43.596;1.320;2022-08-07T01:46:56;23.30;37.70
27506;DHT22;14939;43.596;1.320;2022-08-07T01:49:22;23.30;38.10
27506;DHT22;14939;43.596;1.320;2022-08-07T01:51:49;23.20;38.50
27506;DHT22;14939;43.596;1.320;2022-08-07T01:54:18;23.20;38.70
27506;DHT22;14939;43.596;1.320;2022-08-07T01:57:20;23.10;39.10
27506;DHT22;14939;43.596;1.320;2022-08-07T01:59:53;23.10;39.60
27506;DHT22;14939;43.596;1.320;2022-08-07T02:02:32;23.10;39.30
27506;DHT22;14939;43.596;1.320;2022-08-07T02:05:05;23.00;39.70
27506;DHT22;14939;43.596;1.320;2022-08-07T02:07:35;22.90;40.00
27506;DHT22;14939;43.596;1.320;2022-08-07T02:10:04;22.90;40.10
27506;DHT22;14939;43.596;1.320;2022-08-07T02:12:34;22.80;40.40
27506;DHT22;14939;43.596;1.320;2022-08-07T02:15:01;22.80;40.70
27506;DHT22;14939;43.596;1.320;2022-08-07T02:17:27;22.80;40.80
27506;DHT22;14939;43.596;1.320;2022-08-07T02:19:54;22.70;40.80
27506;DHT22;14939;43.596;1.320;2022-08-07T02:22:21;22.70;40.90
27506;DHT22;14939;43.596;1.320;2022-08-07T02:24:49;22.70;41.00
27506;DHT22;14939;43.596;1.320;2022-08-07T02:27:21;22.70;41.00
27506;DHT22;14939;43.596;1.320;2022-08-07T02:29:48;22.70;41.70
27506;DHT22;14939;43.596;1.320;2022-08-07T02:32:16;22.70;41.00
27506;DHT22;14939;43.596;1.320;2022-08-07T02:34:44;22.70;41.20
27506;DHT22;14939;43.596;1.320;2022-08-07T02:37:12;22.60;41.30
27506;DHT22;14939;43.596;1.320;2022-08-07T02:39:39;22.60;41.40
27506;DHT22;14939;43.596;1.320;2022-08-07T02:42:08;22.50;41.60
27506;DHT22;14939;43.596;1.320;2022-08-07T02:44:34;22.50;41.70
27506;DHT22;14939;43.596;1.320;2022-08-07T02:47:01;22.50;41.80
27506;DHT22;14939;43.596;1.320;2022-08-07T02:49:28;22.50;42.10
27506;DHT22;14939;43.596;1.320;2022-08-07T02:51:56;22.40;42.20
27506;DHT22;14939;43.596;1.320;2022-08-07T02:54:25;22.40;42.10
27506;DHT22;14939;43.596;1.320;2022-08-07T02:56:52;22.30;42.40
27506;DHT22;14939;43.596;1.320;2022-08-07T02:59:23;22.30;42.30
27506;DHT22;14939;43.596;1.320;2022-08-07T03:01:49;22.30;42.20
27506;DHT22;14939;43.596;1.320;2022-08-07T03:04:15;22.30;42.50
27506;DHT22;14939;43.596;1.320;2022-08-07T03:06:42;22.20;42.60
27506;DHT22;14939;43.596;1.320;2022-08-07T03:09:09;22.20;42.90
27506;DHT22;14939;43.596;1.320;2022-08-07T03:11:36;22.10;42.90
27506;DHT22;14939;43.596;1.320;2022-08-07T03:14:03;22.10;43.10
27506;DHT22;14939;43.596;1.320;2022-08-07T03:16:31;22.10;43.20
27506;DHT22;14939;43.596;1.320;2022-08-07T03:19:00;22.00;43.20
27506;DHT22;14939;43.596;1.320;2022-08-07T03:21:26;22.00;43.20
27506;DHT22;14939;43.596;1.320;2022-08-07T03:23:56;22.00;43.40
27506;DHT22;14939;43.596;1.320;2022-08-07T03:26:27;21.90;43.60
27506;DHT22;14939;43.596;1.320;2022-08-07T03:28:56;21.90;43.50
27506;DHT22;14939;43.596;1.320;2022-08-07T03:31:23;21.90;44.40
27506;DHT22;14939;43.596;1.320;2022-08-07T03:33:59;21.90;43.70
27506;DHT22;14939;43.596;1.320;2022-08-07T03:36:27;21.80;43.70
27506;DHT22;14939;43.596;1.320;2022-08-07T03:38:57;21.80;43.70
27506;DHT22;14939;43.596;1.320;2022-08-07T03:41:24;21.80;43.80
27506;DHT22;14939;43.596;1.320;2022-08-07T03:43:50;21.80;43.70
27506;DHT22;14939;43.596;1.320;2022-08-07T03:46:16;21.70;43.80
27506;DHT22;14939;43.596;1.320;2022-08-07T03:48:42;21.70;44.00
27506;DHT22;14939;43.596;1.320;2022-08-07T03:51:08;21.70;43.90
27506;DHT22;14939;43.596;1.320;2022-08-07T03:53:36;21.70;44.10
27506;DHT22;14939;43.596;1.320;2022-08-07T03:56:02;21.60;44.20
27506;DHT22;14939;43.596;1.320;2022-08-07T03:58:29;21.60;44.30
27506;DHT22;14939;43.596;1.320;2022-08-07T04:00:56;21.60;44.50
27506;DHT22;14939;43.596;1.320;2022-08-07T04:03:23;21.50;44.50
27506;DHT22;14939;43.596;1.320;2022-08-07T04:05:49;21.50;44.50
27506;DHT22;14939;43.596;1.320;2022-08-07T04:08:15;21.50;44.50
27506;DHT22;14939;43.596;1.320;2022-08-07T04:10:41;21.50;44.50
27506;DHT22;14939;43.596;1.320;2022-08-07T04:13:11;21.50;44.70
27506;DHT22;14939;43.596;1.320;2022-08-07T04:15:37;21.40;44.70
27506;DHT22;14939;43.596;1.320;2022-08-07T04:18:03;21.40;44.60
27506;DHT22;14939;43.596;1.320;2022-08-07T04:20:29;21.40;44.70
27506;DHT22;14939;43.596;1.320;2022-08-07T04:22:57;21.40;44.70
27506;DHT22;14939;43.596;1.320;2022-08-07T04:25:23;21.40;44.60
27506;DHT22;14939;43.596;1.320;2022-08-07T04:27:50;21.40;44.60
27506;DHT22;14939;43.596;1.320;2022-08-07T04:30:16;21.40;44.70
27506;DHT22;14939;43.596;1.320;2022-08-07T04:32:42;21.40;44.60
27506;DHT22;14939;43.596;1.320;2022-08-07T04:35:09;21.40;44.80
27506;DHT22;14939;43.596;1.320;2022-08-07T04:37:35;21.30;44.90
27506;DHT22;14939;43.596;1.320;2022-08-07T04:40:02;21.30;45.10
27506;DHT22;14939;43.596;1.320;2022-08-07T04:42:28;21.30;45.30
27506;DHT22;14939;43.596;1.320;2022-08-07T04:44:57;21.20;45.50
27506;DHT22;14939;43.596;1.320;2022-08-07T04:47:54;21.20;46.20
27506;DHT22;14939;43.596;1.320;2022-08-07T04:50:33;21.20;45.70
27506;DHT22;14939;43.596;1.320;2022-08-07T04:53:22;21.10;45.80
27506;DHT22;14939;43.596;1.320;2022-08-07T04:56:09;21.10;46.00
27506;DHT22;14939;43.596;1.320;2022-08-07T04:58:43;21.10;46.10
27506;DHT22;14939;43.596;1.320;2022-08-07T05:01:27;21.10;46.20
27506;DHT22;14939;43.596;1.320;2022-08-07T05:04:14;21.10;46.20
27506;DHT22;14939;43.596;1.320;2022-08-07T05:07:06;21.10;46.30
27506;DHT22;14939;43.596;1.320;2022-08-07T05:10:02;21.10;46.30
27506;DHT22;14939;43.596;1.320;2022-08-07T05:12:37;21.10;46.20
27506;DHT22;14939;43.596;1.320;2022-08-07T05:15:15;21.00;46.20
27506;DHT22;14939;43.596;1.320;2022-08-07T05:17:45;21.10;46.20
27506;DHT22;14939;43.596;1.320;2022-08-07T05:20:24;21.10;46.00
27506;DHT22;14939;43.596;1.320;2022-08-07T05:22:55;21.10;45.90
27506;DHT22;14939;43.596;1.320;2022-08-07T05:25:22;21.20;46.70
27506;DHT22;14939;43.596;1.320;2022-08-07T05:27:49;21.20;45.70
27506;DHT22;14939;43.596;1.320;2022-08-07T05:30:15;21.20;45.60
27506;DHT22;14939;43.596;1.320;2022-08-07T05:32:43;21.30;45.50
27506;DHT22;14939;43.596;1.320;2022-08-07T05:35:12;21.30;45.30
27506;DHT22;14939;43.596;1.320;2022-08-07T05:37:39;21.30;45.10
27506;DHT22;14939;43.596;1.320;2022-08-07T05:40:06;21.40;45.10
27506;DHT22;14939;43.596;1.320;2022-08-07T05:42:33;21.40;45.80
27506;DHT22;14939;43.596;1.320;2022-08-07T05:44:59;21.40;45.10
27506;DHT22;14939;43.596;1.320;2022-08-07T05:47:25;21.40;44.90
27506;DHT22;14939;43.596;1.320;2022-08-07T05:49:52;21.40;45.00
27506;DHT22;14939;43.596;1.320;2022-08-07T05:52:18;21.50;44.60
27506;DHT22;14939;43.596;1.320;2022-08-07T05:54:44;21.60;44.40
27506;DHT22;14939;43.596;1.320;2022-08-07T05:57:11;21.60;44.30
27506;DHT22;14939;43.596;1.320;2022-08-07T05:59:39;21.60;44.20
27506;DHT22;14939;43.596;1.320;2022-08-07T06:02:06;21.70;44.00
27506;DHT22;14939;43.596;1.320;2022-08-07T06:04:36;21.70;43.70
27506;DHT22;14939;43.596;1.320;2022-08-07T06:07:04;21.80;43.00
27506;DHT22;14939;43.596;1.320;2022-08-07T06:09:33;21.80;42.90
27506;DHT22;14939;43.596;1.320;2022-08-07T06:11:59;21.90;42.80
27506;DHT22;14939;43.596;1.320;2022-08-07T06:14:25;21.90;42.50
27506;DHT22;14939;43.596;1.320;2022-08-07T06:16:51;22.00;42.50
27506;DHT22;14939;43.596;1.320;2022-08-07T06:19:18;22.00;42.20
27506;DHT22;14939;43.596;1.320;2022-08-07T06:21:48;22.00;42.60
27506;DHT22;14939;43.596;1.320;2022-08-07T06:24:14;22.00;42.60
27506;DHT22;14939;43.596;1.320;2022-08-07T06:26:40;22.00;42.40
27506;DHT22;14939;43.596;1.320;2022-08-07T06:29:07;22.00;42.30
27506;DHT22;14939;43.596;1.320;2022-08-07T06:31:33;22.10;42.50
27506;DHT22;14939;43.596;1.320;2022-08-07T06:33:59;22.00;42.60
27506;DHT22;14939;43.596;1.320;2022-08-07T06:36:24;22.10;42.40
27506;DHT22;14939;43.596;1.320;2022-08-07T06:38:52;22.10;42.60
27506;DHT22;14939;43.596;1.320;2022-08-07T06:41:32;22.20;42.30
27506;DHT22;14939;43.596;1.320;2022-08-07T06:43:59;22.20;42.10
27506;DHT22;14939;43.596;1.320;2022-08-07T06:46:26;22.30;41.90
27506;DHT22;14939;43.596;1.320;2022-08-07T06:48:52;22.30;42.10
27506;DHT22;14939;43.596;1.320;2022-08-07T06:51:22;22.40;42.00
27506;DHT22;14939;43.596;1.320;2022-08-07T06:53:49;22.50;41.90
27506;DHT22;14939;43.596;1.320;2022-08-07T06:56:16;22.50;41.70
27506;DHT22;14939;43.596;1.320;2022-08-07T06:58:42;22.60;41.60
27506;DHT22;14939;43.596;1.320;2022-08-07T07:01:11;22.60;41.50
27506;DHT22;14939;43.596;1.320;2022-08-07T07:03:39;22.70;41.20
27506;DHT22;14939;43.596;1.320;2022-08-07T07:06:09;22.80;41.00
27506;DHT22;14939;43.596;1.320;2022-08-07T07:08:35;23.00;41.00
27506;DHT22;14939;43.596;1.320;2022-08-07T07:11:03;23.10;40.60
27506;DHT22;14939;43.596;1.320;2022-08-07T07:13:38;23.20;40.20
27506;DHT22;14939;43.596;1.320;2022-08-07T07:16:14;23.20;39.80
27506;DHT22;14939;43.596;1.320;2022-08-07T07:18:51;23.30;39.60
27506;DHT22;14939;43.596;1.320;2022-08-07T07:21:33;23.40;39.20
27506;DHT22;14939;43.596;1.320;2022-08-07T07:24:01;23.40;39.10
27506;DHT22;14939;43.596;1.320;2022-08-07T07:26:29;23.40;38.90
27506;DHT22;14939;43.596;1.320;2022-08-07T07:29:02;23.50;38.50
27506;DHT22;14939;43.596;1.320;2022-08-07T07:31:42;23.50;38.60
27506;DHT22;14939;43.596;1.320;2022-08-07T07:34:17;23.60;38.50
27506;DHT22;14939;43.596;1.320;2022-08-07T07:36:44;23.70;38.40
27506;DHT22;14939;43.596;1.320;2022-08-07T07:39:12;23.80;38.00
27506;DHT22;14939;43.596;1.320;2022-08-07T07:41:39;23.80;37.70
27506;DHT22;14939;43.596;1.320;2022-08-07T07:44:08;23.80;37.70
27506;DHT22;14939;43.596;1.320;2022-08-07T07:46:39;23.90;37.70
27506;DHT22;14939;43.596;1.320;2022-08-07T07:49:07;23.90;37.70
27506;DHT22;14939;43.596;1.320;2022-08-07T07:51:36;24.10;38.00
27506;DHT22;14939;43.596;1.320;2022-08-07T07:54:04;24.10;37.50
27506;DHT22;14939;43.596;1.320;2022-08-07T07:56:32;24.20;37.60
27506;DHT22;14939;43.596;1.320;2022-08-07T07:59:01;24.30;37.10
27506;DHT22;14939;43.596;1.320;2022-08-07T08:01:28;24.30;37.00
27506;DHT22;14939;43.596;1.320;2022-08-07T08:03:57;24.40;36.70
27506;DHT22;14939;43.596;1.320;2022-08-07T08:06:25;24.40;36.40
27506;DHT22;14939;43.596;1.320;2022-08-07T08:08:52;24.50;36.20
27506;DHT22;14939;43.596;1.320;2022-08-07T08:11:19;24.60;36.00
27506;DHT22;14939;43.596;1.320;2022-08-07T08:13:47;24.60;36.00
27506;DHT22;14939;43.596;1.320;2022-08-07T08:16:19;24.60;36.20
27506;DHT22;14939;43.596;1.320;2022-08-07T08:18:47;24.80;36.30
27506;DHT22;14939;43.596;1.320;2022-08-07T08:21:14;24.80;36.20
27506;DHT22;14939;43.596;1.320;2022-08-07T08:24:04;25.00;35.80
27506;DHT22;14939;43.596;1.320;2022-08-07T08:26:51;25.00;35.70
27506;DHT22;14939;43.596;1.320;2022-08-07T08:29:37;25.10;35.90
27506;DHT22;14939;43.596;1.320;2022-08-07T08:32:06;25.10;35.70
27506;DHT22;14939;43.596;1.320;2022-08-07T08:34:35;25.20;36.00
27506;DHT22;14939;43.596;1.320;2022-08-07T08:37:04;25.30;36.00
27506;DHT22;14939;43.596;1.320;2022-08-07T08:39:30;25.40;35.90
27506;DHT22;14939;43.596;1.320;2022-08-07T08:42:03;25.60;35.60
27506;DHT22;14939;43.596;1.320;2022-08-07T08:44:40;25.60;35.30
27506;DHT22;14939;43.596;1.320;2022-08-07T08:47:21;25.70;35.60
27506;DHT22;14939;43.596;1.320;2022-08-07T08:50:18;25.70;35.30
27506;DHT22;14939;43.596;1.320;2022-08-07T08:58:02;26.10;34.20
27506;DHT22;14939;43.596;1.320;2022-08-07T09:00:38;26.30;33.80
27506;DHT22;14939;43.596;1.320;2022-08-07T09:03:14;26.40;33.70
27506;DHT22;14939;43.596;1.320;2022-08-07T09:05:58;26.50;33.60
27506;DHT22;14939;43.596;1.320;2022-08-07T09:08:43;26.40;32.80
27506;DHT22;14939;43.596;1.320;2022-08-07T09:11:13;26.50;32.90
27506;DHT22;14939;43.596;1.320;2022-08-07T09:14:00;26.80;32.00
27506;DHT22;14939;43.596;1.320;2022-08-07T09:19:11;26.80;31.00
27506;DHT22;14939;43.596;1.320;2022-08-07T09:26:55;26.90;30.80
27506;DHT22;14939;43.596;1.320;2022-08-07T09:54:29;27.60;28.60
27506;DHT22;14939;43.596;1.320;2022-08-07T10:00:07;27.90;28.30
27506;DHT22;14939;43.596;1.320;2022-08-07T10:16:03;28.30;26.30
27506;DHT22;14939;43.596;1.320;2022-08-07T10:24:27;28.50;26.00
27506;DHT22;14939;43.596;1.320;2022-08-07T10:44:19;29.00;24.50
27506;DHT22;14939;43.596;1.320;2022-08-07T10:49:39;28.80;24.30
27506;DHT22;14939;43.596;1.320;2022-08-07T10:52:11;29.00;24.60
27506;DHT22;14939;43.596;1.320;2022-08-07T10:54:43;29.10;24.10
27506;DHT22;14939;43.596;1.320;2022-08-07T10:57:30;29.10;23.60
27506;DHT22;14939;43.596;1.320;2022-08-07T11:00:08;29.30;24.00
27506;DHT22;14939;43.596;1.320;2022-08-07T11:05:57;29.50;23.70
27506;DHT22;14939;43.596;1.320;2022-08-07T11:09:03;29.60;23.00
27506;DHT22;14939;43.596;1.320;2022-08-07T11:11:34;29.60;22.10
27506;DHT22;14939;43.596;1.320;2022-08-07T11:14:24;29.70;22.00
27506;DHT22;14939;43.596;1.320;2022-08-07T11:17:20;29.70;21.10
27506;DHT22;14939;43.596;1.320;2022-08-07T11:19:57;29.60;21.90
27506;DHT22;14939;43.596;1.320;2022-08-07T11:22:24;29.50;22.20
27506;DHT22;14939;43.596;1.320;2022-08-07T11:25:15;29.60;22.40
27506;DHT22;14939;43.596;1.320;2022-08-07T11:31:05;29.90;21.60
27506;DHT22;14939;43.596;1.320;2022-08-07T11:33:43;30.00;20.70
27506;DHT22;14939;43.596;1.320;2022-08-07T11:36:33;30.00;19.70
27506;DHT22;14939;43.596;1.320;2022-08-07T11:45:33;30.10;21.00
27506;DHT22;14939;43.596;1.320;2022-08-07T11:51:08;30.20;21.10
27506;DHT22;14939;43.596;1.320;2022-08-07T12:01:17;30.50;18.90
27506;DHT22;14939;43.596;1.320;2022-08-07T12:06:47;30.50;19.10
27506;DHT22;14939;43.596;1.320;2022-08-07T12:09:34;30.50;18.60
27506;DHT22;14939;43.596;1.320;2022-08-07T12:14:28;30.50;18.50
27506;DHT22;14939;43.596;1.320;2022-08-07T12:17:06;30.80;18.10
27506;DHT22;14939;43.596;1.320;2022-08-07T12:19:47;30.80;18.10
27506;DHT22;14939;43.596;1.320;2022-08-07T12:22:22;30.80;18.10
27506;DHT22;14939;43.596;1.320;2022-08-07T12:25:12;30.90;17.70
27506;DHT22;14939;43.596;1.320;2022-08-07T12:28:02;31.10;17.00
27506;DHT22;14939;43.596;1.320;2022-08-07T12:30:33;31.10;17.20
27506;DHT22;14939;43.596;1.320;2022-08-07T12:33:01;31.20;16.60
27506;DHT22;14939;43.596;1.320;2022-08-07T12:35:32;31.10;16.00
27506;DHT22;14939;43.596;1.320;2022-08-07T12:37:58;31.10;16.00
27506;DHT22;14939;43.596;1.320;2022-08-07T12:40:28;30.90;15.60
27506;DHT22;14939;43.596;1.320;2022-08-07T12:42:57;31.00;16.30
27506;DHT22;14939;43.596;1.320;2022-08-07T12:45:26;31.30;15.50
27506;DHT22;14939;43.596;1.320;2022-08-07T12:48:13;31.20;14.80
27506;DHT22;14939;43.596;1.320;2022-08-07T12:50:43;31.40;15.30
27506;DHT22;14939;43.596;1.320;2022-08-07T12:58:17;31.50;14.60
27506;DHT22;14939;43.596;1.320;2022-08-07T13:01:02;31.60;13.60
27506;DHT22;14939;43.596;1.320;2022-08-07T13:04:10;31.60;13.30
27506;DHT22;14939;43.596;1.320;2022-08-07T13:18:32;31.70;13.30
27506;DHT22;14939;43.596;1.320;2022-08-07T13:21:10;31.70;13.40
27506;DHT22;14939;43.596;1.320;2022-08-07T13:24:07;31.80;13.30
27506;DHT22;14939;43.596;1.320;2022-08-07T13:26:40;31.70;12.40
27506;DHT22;14939;43.596;1.320;2022-08-07T13:29:19;31.70;12.80
27506;DHT22;14939;43.596;1.320;2022-08-07T13:32:00;31.60;13.10
27506;DHT22;14939;43.596;1.320;2022-08-07T13:35:03;31.70;12.70
27506;DHT22;14939;43.596;1.320;2022-08-07T13:40:34;32.10;12.60
27506;DHT22;14939;43.596;1.320;2022-08-07T13:43:05;31.90;12.40
27506;DHT22;14939;43.596;1.320;2022-08-07T13:45:33;31.90;12.20
27506;DHT22;14939;43.596;1.320;2022-08-07T13:48:02;32.10;12.60
27506;DHT22;14939;43.596;1.320;2022-08-07T13:50:29;32.10;12.40
27506;DHT22;14939;43.596;1.320;2022-08-07T13:52:55;32.00;11.40
27506;DHT22;14939;43.596;1.320;2022-08-07T13:55:22;32.20;11.60
27506;DHT22;14939;43.596;1.320;2022-08-07T13:57:51;32.30;11.30
27506;DHT22;14939;43.596;1.320;2022-08-07T14:00:17;32.20;11.20
27506;DHT22;14939;43.596;1.320;2022-08-07T14:02:46;32.30;11.30
27506;DHT22;14939;43.596;1.320;2022-08-07T14:05:13;32.40;10.60
27506;DHT22;14939;43.596;1.320;2022-08-07T14:07:45;32.30;10.20
27506;DHT22;14939;43.596;1.320;2022-08-07T14:10:12;32.40;11.00
27506;DHT22;14939;43.596;1.320;2022-08-07T14:12:53;32.20;11.10
27506;DHT22;14939;43.596;1.320;2022-08-07T14:18:17;32.20;10.90
27506;DHT22;14939;43.596;1.320;2022-08-07T14:20:46;32.40;10.50
27506;DHT22;14939;43.596;1.320;2022-08-07T14:23:21;32.20;10.70
27506;DHT22;14939;43.596;1.320;2022-08-07T14:25:58;32.40;10.20
27506;DHT22;14939;43.596;1.320;2022-08-07T14:28:27;32.40;10.40
27506;DHT22;14939;43.596;1.320;2022-08-07T14:30:54;32.60;10.60
27506;DHT22;14939;43.596;1.320;2022-08-07T14:33:21;32.70;10.00
27506;DHT22;14939;43.596;1.320;2022-08-07T14:35:48;32.40;9.90
27506;DHT22;14939;43.596;1.320;2022-08-07T14:38:23;32.30;10.30
27506;DHT22;14939;43.596;1.320;2022-08-07T14:40:54;32.40;10.30
27506;DHT22;14939;43.596;1.320;2022-08-07T14:43:22;32.60;9.70
27506;DHT22;14939;43.596;1.320;2022-08-07T14:45:52;32.60;10.20
27506;DHT22;14939;43.596;1.320;2022-08-07T14:48:26;32.80;9.80
27506;DHT22;14939;43.596;1.320;2022-08-07T14:50:54;32.90;9.60
27506;DHT22;14939;43.596;1.320;2022-08-07T14:53:23;32.70;10.00
27506;DHT22;14939;43.596;1.320;2022-08-07T14:55:50;32.70;9.80
27506;DHT22;14939;43.596;1.320;2022-08-07T14:58:17;32.90;9.50
27506;DHT22;14939;43.596;1.320;2022-08-07T15:00:47;33.20;9.30
27506;DHT22;14939;43.596;1.320;2022-08-07T15:03:16;33.40;8.00
27506;DHT22;14939;43.596;1.320;2022-08-07T15:05:43;36.00;7.10
27506;DHT22;14939;43.596;1.320;2022-08-07T15:08:10;38.60;4.70
27506;DHT22;14939;43.596;1.320;2022-08-07T15:10:39;39.50;3.00
27506;DHT22;14939;43.596;1.320;2022-08-07T15:13:15;38.90;2.80
27506;DHT22;14939;43.596;1.320;2022-08-07T15:15:44;40.70;1.90
27506;DHT22;14939;43.596;1.320;2022-08-07T15:18:14;41.10;1.00
27506;DHT22;14939;43.596;1.320;2022-08-07T15:20:43;41.70;1.00
27506;DHT22;14939;43.596;1.320;2022-08-07T15:23:20;41.20;1.00
27506;DHT22;14939;43.596;1.320;2022-08-07T15:25:53;41.60;1.00
27506;DHT22;14939;43.596;1.320;2022-08-07T15:28:24;41.70;1.00
27506;DHT22;14939;43.596;1.320;2022-08-07T15:30:54;42.20;1.00
27506;DHT22;14939;43.596;1.320;2022-08-07T15:33:21;42.40;1.00
27506;DHT22;14939;43.596;1.320;2022-08-07T15:35:52;40.80;1.00
27506;DHT22;14939;43.596;1.320;2022-08-07T15:38:27;40.30;1.00
27506;DHT22;14939;43.596;1.320;2022-08-07T15:40:55;41.10;1.00
27506;DHT22;14939;43.596;1.320;2022-08-07T15:43:26;41.10;1.00
27506;DHT22;14939;43.596;1.320;2022-08-07T15:45:55;41.30;1.00
27506;DHT22;14939;43.596;1.320;2022-08-07T15:48:34;41.50;1.00
27506;DHT22;14939;43.596;1.320;2022-08-07T15:51:10;41.40;1.00
27506;DHT22;14939;43.596;1.320;2022-08-07T15:53:41;42.50;1.00
27506;DHT22;14939;43.596;1.320;2022-08-07T15:56:08;42.70;1.00
27506;DHT22;14939;43.596;1.320;2022-08-07T15:58:59;41.40;1.00
27506;DHT22;14939;43.596;1.320;2022-08-07T16:01:38;41.40;1.00
27506;DHT22;14939;43.596;1.320;2022-08-07T16:04:07;41.60;1.00
27506;DHT22;14939;43.596;1.320;2022-08-07T16:06:53;42.00;1.00
27506;DHT22;14939;43.596;1.320;2022-08-07T16:09:23;41.00;1.00
27506;DHT22;14939;43.596;1.320;2022-08-07T16:14:56;43.30;1.00
27506;DHT22;14939;43.596;1.320;2022-08-07T16:34:01;43.10;1.00
27506;DHT22;14939;43.596;1.320;2022-08-07T16:44:33;41.70;1.00
27506;DHT22;14939;43.596;1.320;2022-08-07T16:57:32;41.70;1.00
27506;DHT22;14939;43.596;1.320;2022-08-07T17:02:40;40.50;1.00
27506;DHT22;14939;43.596;1.320;2022-08-07T17:08:03;39.60;1.00
27506;DHT22;14939;43.596;1.320;2022-08-07T17:16:30;40.40;1.00
27506;DHT22;14939;43.596;1.320;2022-08-07T17:19:01;39.50;1.00
27506;DHT22;14939;43.596;1.320;2022-08-07T17:21:33;38.50;1.00
27506;DHT22;14939;43.596;1.320;2022-08-07T17:27:03;38.50;1.00
27506;DHT22;14939;43.596;1.320;2022-08-07T17:32:32;38.40;1.00
27506;DHT22;14939;43.596;1.320;2022-08-07T17:35:11;38.20;1.00
27506;DHT22;14939;43.596;1.320;2022-08-07T17:38:16;39.00;1.00
27506;DHT22;14939;43.596;1.320;2022-08-07T17:40:55;38.10;1.00
27506;DHT22;14939;43.596;1.320;2022-08-07T17:43:28;37.80;1.00
27506;DHT22;14939;43.596;1.320;2022-08-07T17:45:56;37.50;1.00
27506;DHT22;14939;43.596;1.320;2022-08-07T17:48:30;36.90;1.00
27506;DHT22;14939;43.596;1.320;2022-08-07T17:51:13;36.60;1.00
27506;DHT22;14939;43.596;1.320;2022-08-07T17:56:28;38.20;1.00
27506;DHT22;14939;43.596;1.320;2022-08-07T18:01:25;37.80;1.00
27506;DHT22;14939;43.596;1.320;2022-08-07T18:09:33;36.90;1.00
27506;DHT22;14939;43.596;1.320;2022-08-07T18:13:07;36.50;1.00
27506;DHT22;14939;43.596;1.320;2022-08-07T18:15:24;35.80;1.00
27506;DHT22;14939;43.596;1.320;2022-08-07T18:18:16;35.60;1.00
27506;DHT22;14939;43.596;1.320;2022-08-07T18:23:28;34.70;1.00
27506;DHT22;14939;43.596;1.320;2022-08-07T18:26:03;34.70;1.00
27506;DHT22;14939;43.596;1.320;2022-08-07T18:31:17;34.60;1.00
27506;DHT22;14939;43.596;1.320;2022-08-07T18:36:37;33.70;1.00
27506;DHT22;14939;43.596;1.320;2022-08-07T18:39:24;33.10;1.00
27506;DHT22;14939;43.596;1.320;2022-08-07T18:42:01;32.70;1.00
27506;DHT22;14939;43.596;1.320;2022-08-07T18:53:27;31.40;1.50
27506;DHT22;14939;43.596;1.320;2022-08-07T19:03:57;30.60;2.50
27506;DHT22;14939;43.596;1.320;2022-08-07T19:06:46;30.40;2.80
27506;DHT22;14939;43.596;1.320;2022-08-07T19:09:47;30.30;2.80
27506;DHT22;14939;43.596;1.320;2022-08-07T19:12:22;30.20;2.90
27506;DHT22;14939;43.596;1.320;2022-08-07T19:20:18;29.80;3.10
27506;DHT22;14939;43.596;1.320;2022-08-07T19:23:02;29.70;3.20
27506;DHT22;14939;43.596;1.320;2022-08-07T19:25:35;29.60;3.40
27506;DHT22;14939;43.596;1.320;2022-08-07T19:28:04;29.50;3.70
27506;DHT22;14939;43.596;1.320;2022-08-07T19:30:33;29.30;3.90
27506;DHT22;14939;43.596;1.320;2022-08-07T19:33:05;29.20;4.10
27506;DHT22;14939;43.596;1.320;2022-08-07T19:35:33;29.00;4.30
27506;DHT22;14939;43.596;1.320;2022-08-07T19:38:04;28.90;4.40
27506;DHT22;14939;43.596;1.320;2022-08-07T19:40:40;28.80;4.70
27506;DHT22;14939;43.596;1.320;2022-08-07T19:43:27;28.70;5.00
27506;DHT22;14939;43.596;1.320;2022-08-07T19:45:57;28.60;5.10
27506;DHT22;14939;43.596;1.320;2022-08-07T19:48:46;28.50;5.40
27506;DHT22;14939;43.596;1.320;2022-08-07T19:51:16;28.40;5.40
27506;DHT22;14939;43.596;1.320;2022-08-07T19:53:50;28.40;5.50